Terminal Aerodrome Forecast
Issued by NWS

Home | Current Version | Previous Version | Text Only | Print | Product List | Glossary On
Versions: 1 2 3 4 5 6 7 8 9 10 11 12 13 14 15
000
FTUS43 KMPX 020821 AAA
TAFAXN
TAF AMD
KAXN 020821Z 0208/0306 28009KT P6SM SKC
     FM021500 28018G25KT P6SM SKC
     FM021800 28026G34KT P6SM SKC
     FM030200 32015G21KT P6SM SCT025 BKN250=

USA.gov is the U.S. government's official web portal to all federal, state and local government web resources and services.